sensor_id;sensor_type;location;lat;lon;timestamp;P1;durP1;ratioP1;P2;durP2;ratioP2
56037;SDS011;41907;47.848;9.000;2023-01-05T00:01:13;6.53;;;4.18;;
56037;SDS011;41907;47.848;9.000;2023-01-05T00:03:38;8.27;;;4.43;;
56037;SDS011;41907;47.848;9.000;2023-01-05T00:06:06;17.42;;;12.80;;
56037;SDS011;41907;47.848;9.000;2023-01-05T00:08:34;15.80;;;12.05;;
56037;SDS011;41907;47.848;9.000;2023-01-05T00:11:06;10.23;;;6.47;;
56037;SDS011;41907;47.848;9.000;2023-01-05T00:13:53;60.58;;;38.67;;
56037;SDS011;41907;47.848;9.000;2023-01-05T00:16:37;48.28;;;30.48;;
56037;SDS011;41907;47.848;9.000;2023-01-05T00:19:21;35.83;;;22.55;;
56037;SDS011;41907;47.848;9.000;2023-01-05T00:22:40;58.70;;;35.53;;
56037;SDS011;41907;47.848;9.000;2023-01-05T00:24:59;27.50;;;15.10;;
56037;SDS011;41907;47.848;9.000;2023-01-05T00:27:27;52.40;;;28.25;;
56037;SDS011;41907;47.848;9.000;2023-01-05T00:29:52;48.97;;;29.17;;
56037;SDS011;41907;47.848;9.000;2023-01-05T00:32:18;56.35;;;34.78;;
56037;SDS011;41907;47.848;9.000;2023-01-05T00:34:43;29.02;;;18.00;;
56037;SDS011;41907;47.848;9.000;2023-01-05T00:37:09;21.45;;;10.23;;
56037;SDS011;41907;47.848;9.000;2023-01-05T00:39:34;16.35;;;7.18;;
56037;SDS011;41907;47.848;9.000;2023-01-05T00:41:59;12.82;;;6.00;;
56037;SDS011;41907;47.848;9.000;2023-01-05T00:44:24;9.23;;;5.40;;
56037;SDS011;41907;47.848;9.000;2023-01-05T00:46:50;14.77;;;9.10;;
56037;SDS011;41907;47.848;9.000;2023-01-05T00:49:15;5.40;;;3.67;;
56037;SDS011;41907;47.848;9.000;2023-01-05T00:51:40;11.38;;;6.70;;
56037;SDS011;41907;47.848;9.000;2023-01-05T00:54:06;55.45;;;36.33;;
56037;SDS011;41907;47.848;9.000;2023-01-05T00:56:32;31.17;;;20.02;;
56037;SDS011;41907;47.848;9.000;2023-01-05T00:58:57;50.70;;;28.98;;
56037;SDS011;41907;47.848;9.000;2023-01-05T01:01:22;50.47;;;29.92;;
56037;SDS011;41907;47.848;9.000;2023-01-05T01:03:48;91.10;;;56.10;;
56037;SDS011;41907;47.848;9.000;2023-01-05T01:06:13;35.38;;;23.20;;
56037;SDS011;41907;47.848;9.000;2023-01-05T01:08:39;101.53;;;80.80;;
56037;SDS011;41907;47.848;9.000;2023-01-05T01:11:06;64.60;;;47.13;;
56037;SDS011;41907;47.848;9.000;2023-01-05T01:13:31;68.18;;;50.60;;
56037;SDS011;41907;47.848;9.000;2023-01-05T01:15:57;112.90;;;82.70;;
56037;SDS011;41907;47.848;9.000;2023-01-05T01:18:29;74.25;;;56.88;;
56037;SDS011;41907;47.848;9.000;2023-01-05T01:20:55;77.95;;;53.80;;
56037;SDS011;41907;47.848;9.000;2023-01-05T01:23:20;23.33;;;17.70;;
56037;SDS011;41907;47.848;9.000;2023-01-05T01:25:45;5.05;;;4.10;;
56037;SDS011;41907;47.848;9.000;2023-01-05T01:28:11;1.52;;;1.20;;
56037;SDS011;41907;47.848;9.000;2023-01-05T01:30:37;12.98;;;7.90;;
56037;SDS011;41907;47.848;9.000;2023-01-05T01:33:03;24.23;;;15.88;;
56037;SDS011;41907;47.848;9.000;2023-01-05T01:35:28;29.30;;;20.73;;
56037;SDS011;41907;47.848;9.000;2023-01-05T01:37:53;14.45;;;10.30;;
56037;SDS011;41907;47.848;9.000;2023-01-05T01:40:19;18.75;;;10.77;;
56037;SDS011;41907;47.848;9.000;2023-01-05T01:42:44;14.50;;;6.93;;
56037;SDS011;41907;47.848;9.000;2023-01-05T01:45:22;9.32;;;5.80;;
56037;SDS011;41907;47.848;9.000;2023-01-05T01:50:44;55.15;;;36.30;;
56037;SDS011;41907;47.848;9.000;2023-01-05T01:53:15;37.15;;;24.05;;
56037;SDS011;41907;47.848;9.000;2023-01-05T01:55:47;20.13;;;12.35;;
56037;SDS011;41907;47.848;9.000;2023-01-05T01:58:14;13.82;;;9.10;;
56037;SDS011;41907;47.848;9.000;2023-01-05T02:00:43;4.47;;;1.95;;
56037;SDS011;41907;47.848;9.000;2023-01-05T02:03:10;1.38;;;0.93;;
56037;SDS011;41907;47.848;9.000;2023-01-05T02:05:36;10.13;;;3.97;;
56037;SDS011;41907;47.848;9.000;2023-01-05T02:08:02;12.20;;;6.70;;
56037;SDS011;41907;47.848;9.000;2023-01-05T02:13:11;27.58;;;18.40;;
56037;SDS011;41907;47.848;9.000;2023-01-05T02:15:43;14.73;;;9.95;;
56037;SDS011;41907;47.848;9.000;2023-01-05T02:18:26;14.68;;;9.07;;
56037;SDS011;41907;47.848;9.000;2023-01-05T02:21:06;16.15;;;7.38;;
56037;SDS011;41907;47.848;9.000;2023-01-05T02:23:45;14.13;;;4.78;;
56037;SDS011;41907;47.848;9.000;2023-01-05T02:26:35;17.88;;;7.35;;
56037;SDS011;41907;47.848;9.000;2023-01-05T02:32:21;28.90;;;16.63;;
56037;SDS011;41907;47.848;9.000;2023-01-05T02:37:45;3.08;;;1.58;;
56037;SDS011;41907;47.848;9.000;2023-01-05T02:40:23;20.33;;;10.85;;
56037;SDS011;41907;47.848;9.000;2023-01-05T02:42:55;11.23;;;5.75;;
56037;SDS011;41907;47.848;9.000;2023-01-05T02:45:22;3.95;;;1.85;;
56037;SDS011;41907;47.848;9.000;2023-01-05T02:47:48;1.50;;;0.80;;
56037;SDS011;41907;47.848;9.000;2023-01-05T02:53:03;1.88;;;0.73;;
56037;SDS011;41907;47.848;9.000;2023-01-05T02:58:24;1.30;;;0.90;;
56037;SDS011;41907;47.848;9.000;2023-01-05T03:01:06;1.23;;;1.00;;
56037;SDS011;41907;47.848;9.000;2023-01-05T03:06:12;1.23;;;0.98;;
56037;SDS011;41907;47.848;9.000;2023-01-05T03:08:53;1.52;;;1.00;;
56037;SDS011;41907;47.848;9.000;2023-01-05T03:11:21;2.03;;;1.10;;
56037;SDS011;41907;47.848;9.000;2023-01-05T03:14:15;1.30;;;1.00;;
56037;SDS011;41907;47.848;9.000;2023-01-05T03:16:46;1.13;;;1.02;;
56037;SDS011;41907;47.848;9.000;2023-01-05T03:19:15;2.55;;;1.30;;
56037;SDS011;41907;47.848;9.000;2023-01-05T03:22:04;3.85;;;1.65;;
56037;SDS011;41907;47.848;9.000;2023-01-05T03:25:04;1.92;;;1.40;;
56037;SDS011;41907;47.848;9.000;2023-01-05T03:27:50;1.65;;;1.10;;
56037;SDS011;41907;47.848;9.000;2023-01-05T03:30:44;2.63;;;1.50;;
56037;SDS011;41907;47.848;9.000;2023-01-05T03:33:39;2.67;;;1.90;;
56037;SDS011;41907;47.848;9.000;2023-01-05T03:36:26;2.22;;;1.20;;
56037;SDS011;41907;47.848;9.000;2023-01-05T03:38:53;2.58;;;1.35;;
56037;SDS011;41907;47.848;9.000;2023-01-05T03:41:22;3.03;;;1.85;;
56037;SDS011;41907;47.848;9.000;2023-01-05T03:43:48;11.18;;;5.60;;
56037;SDS011;41907;47.848;9.000;2023-01-05T03:46:16;5.32;;;2.83;;
56037;SDS011;41907;47.848;9.000;2023-01-05T03:48:44;1.90;;;1.70;;
56037;SDS011;41907;47.848;9.000;2023-01-05T03:51:10;2.03;;;1.30;;
56037;SDS011;41907;47.848;9.000;2023-01-05T03:53:35;3.35;;;1.50;;
56037;SDS011;41907;47.848;9.000;2023-01-05T03:56:01;38.08;;;20.45;;
56037;SDS011;41907;47.848;9.000;2023-01-05T03:58:26;49.03;;;33.92;;
56037;SDS011;41907;47.848;9.000;2023-01-05T04:00:51;29.63;;;20.23;;
56037;SDS011;41907;47.848;9.000;2023-01-05T04:03:17;15.75;;;9.30;;
56037;SDS011;41907;47.848;9.000;2023-01-05T04:05:42;138.80;;;70.82;;
56037;SDS011;41907;47.848;9.000;2023-01-05T04:08:08;38.08;;;22.35;;
56037;SDS011;41907;47.848;9.000;2023-01-05T04:10:33;20.90;;;10.13;;
56037;SDS011;41907;47.848;9.000;2023-01-05T04:12:59;74.88;;;34.05;;
56037;SDS011;41907;47.848;9.000;2023-01-05T04:15:24;103.45;;;49.88;;
56037;SDS011;41907;47.848;9.000;2023-01-05T04:17:50;109.15;;;55.78;;
56037;SDS011;41907;47.848;9.000;2023-01-05T04:20:15;25.88;;;16.13;;
56037;SDS011;41907;47.848;9.000;2023-01-05T04:22:40;85.45;;;48.67;;
56037;SDS011;41907;47.848;9.000;2023-01-05T04:25:06;29.52;;;17.05;;
56037;SDS011;41907;47.848;9.000;2023-01-05T04:27:32;33.83;;;18.25;;
56037;SDS011;41907;47.848;9.000;2023-01-05T04:29:57;77.45;;;37.25;;
56037;SDS011;41907;47.848;9.000;2023-01-05T04:32:22;29.10;;;17.95;;
56037;SDS011;41907;47.848;9.000;2023-01-05T04:34:48;12.50;;;7.60;;
56037;SDS011;41907;47.848;9.000;2023-01-05T04:37:13;5.35;;;2.20;;
56037;SDS011;41907;47.848;9.000;2023-01-05T04:39:38;7.13;;;3.95;;
56037;SDS011;41907;47.848;9.000;2023-01-05T04:42:04;7.38;;;5.53;;
56037;SDS011;41907;47.848;9.000;2023-01-05T04:44:29;1.77;;;1.48;;
56037;SDS011;41907;47.848;9.000;2023-01-05T04:46:54;58.60;;;27.55;;
56037;SDS011;41907;47.848;9.000;2023-01-05T04:49:20;6.40;;;3.88;;
56037;SDS011;41907;47.848;9.000;2023-01-05T04:51:45;2.47;;;1.65;;
56037;SDS011;41907;47.848;9.000;2023-01-05T04:54:10;4.18;;;2.40;;
56037;SDS011;41907;47.848;9.000;2023-01-05T04:56:35;1.35;;;1.08;;
56037;SDS011;41907;47.848;9.000;2023-01-05T04:59:01;1.30;;;0.90;;
56037;SDS011;41907;47.848;9.000;2023-01-05T05:01:26;6.05;;;3.35;;
56037;SDS011;41907;47.848;9.000;2023-01-05T05:03:52;0.85;;;0.70;;
56037;SDS011;41907;47.848;9.000;2023-01-05T05:06:17;0.35;;;0.32;;
56037;SDS011;41907;47.848;9.000;2023-01-05T05:08:43;3.10;;;0.40;;
56037;SDS011;41907;47.848;9.000;2023-01-05T05:11:08;0.40;;;0.40;;
56037;SDS011;41907;47.848;9.000;2023-01-05T05:13:34;0.30;;;0.30;;
56037;SDS011;41907;47.848;9.000;2023-01-05T05:15:59;0.63;;;0.40;;
56037;SDS011;41907;47.848;9.000;2023-01-05T05:18:24;0.30;;;0.30;;
56037;SDS011;41907;47.848;9.000;2023-01-05T05:20:50;0.20;;;0.20;;
56037;SDS011;41907;47.848;9.000;2023-01-05T05:23:16;8.63;;;4.95;;
56037;SDS011;41907;47.848;9.000;2023-01-05T05:25:42;1.33;;;0.80;;
56037;SDS011;41907;47.848;9.000;2023-01-05T05:28:07;0.40;;;0.25;;
56037;SDS011;41907;47.848;9.000;2023-01-05T05:30:33;0.40;;;0.22;;
56037;SDS011;41907;47.848;9.000;2023-01-05T05:32:58;7.45;;;3.85;;
56037;SDS011;41907;47.848;9.000;2023-01-05T05:35:23;0.73;;;0.35;;
56037;SDS011;41907;47.848;9.000;2023-01-05T05:37:49;0.22;;;0.22;;
56037;SDS011;41907;47.848;9.000;2023-01-05T05:40:14;0.38;;;0.30;;
56037;SDS011;41907;47.848;9.000;2023-01-05T05:42:40;0.32;;;0.28;;
56037;SDS011;41907;47.848;9.000;2023-01-05T05:45:05;0.65;;;0.40;;
56037;SDS011;41907;47.848;9.000;2023-01-05T05:47:31;0.85;;;0.50;;
56037;SDS011;41907;47.848;9.000;2023-01-05T05:49:56;7.28;;;4.70;;
56037;SDS011;41907;47.848;9.000;2023-01-05T05:52:22;1.05;;;0.70;;
56037;SDS011;41907;47.848;9.000;2023-01-05T05:54:47;2.15;;;0.77;;
56037;SDS011;41907;47.848;9.000;2023-01-05T05:57:13;1.67;;;0.43;;
56037;SDS011;41907;47.848;9.000;2023-01-05T05:59:39;4.90;;;3.10;;
56037;SDS011;41907;47.848;9.000;2023-01-05T06:02:04;0.60;;;0.45;;
56037;SDS011;41907;47.848;9.000;2023-01-05T06:04:29;10.48;;;5.85;;
56037;SDS011;41907;47.848;9.000;2023-01-05T06:06:55;8.98;;;4.40;;
56037;SDS011;41907;47.848;9.000;2023-01-05T06:09:20;0.50;;;0.40;;
56037;SDS011;41907;47.848;9.000;2023-01-05T06:11:45;0.52;;;0.32;;
56037;SDS011;41907;47.848;9.000;2023-01-05T06:14:11;0.52;;;0.30;;
56037;SDS011;41907;47.848;9.000;2023-01-05T06:16:36;0.13;;;0.10;;
56037;SDS011;41907;47.848;9.000;2023-01-05T06:19:01;0.10;;;0.10;;
56037;SDS011;41907;47.848;9.000;2023-01-05T06:21:27;0.30;;;0.30;;
56037;SDS011;41907;47.848;9.000;2023-01-05T06:23:52;1.77;;;0.43;;
56037;SDS011;41907;47.848;9.000;2023-01-05T06:26:17;1.48;;;0.70;;
56037;SDS011;41907;47.848;9.000;2023-01-05T06:28:44;8.77;;;5.07;;
56037;SDS011;41907;47.848;9.000;2023-01-05T06:31:09;2.05;;;0.80;;
56037;SDS011;41907;47.848;9.000;2023-01-05T06:33:34;7.05;;;3.67;;
56037;SDS011;41907;47.848;9.000;2023-01-05T06:36:00;2.65;;;2.30;;
56037;SDS011;41907;47.848;9.000;2023-01-05T06:38:25;3.08;;;2.33;;
56037;SDS011;41907;47.848;9.000;2023-01-05T06:40:51;1.88;;;0.70;;
56037;SDS011;41907;47.848;9.000;2023-01-05T06:43:18;0.85;;;0.55;;
56037;SDS011;41907;47.848;9.000;2023-01-05T06:45:44;0.50;;;0.40;;
56037;SDS011;41907;47.848;9.000;2023-01-05T06:48:09;0.40;;;0.40;;
56037;SDS011;41907;47.848;9.000;2023-01-05T06:50:34;2.35;;;0.30;;
56037;SDS011;41907;47.848;9.000;2023-01-05T06:53:00;0.57;;;0.50;;
56037;SDS011;41907;47.848;9.000;2023-01-05T06:55:26;0.30;;;0.20;;
56037;SDS011;41907;47.848;9.000;2023-01-05T06:57:51;0.63;;;0.63;;
56037;SDS011;41907;47.848;9.000;2023-01-05T07:00:16;1.80;;;1.10;;
56037;SDS011;41907;47.848;9.000;2023-01-05T07:02:42;6.20;;;2.95;;
56037;SDS011;41907;47.848;9.000;2023-01-05T07:05:08;2.65;;;1.92;;
56037;SDS011;41907;47.848;9.000;2023-01-05T07:07:34;1.27;;;0.82;;
56037;SDS011;41907;47.848;9.000;2023-01-05T07:09:59;0.57;;;0.57;;
56037;SDS011;41907;47.848;9.000;2023-01-05T07:12:25;1.30;;;0.88;;
56037;SDS011;41907;47.848;9.000;2023-01-05T07:14:51;1.02;;;0.70;;
56037;SDS011;41907;47.848;9.000;2023-01-05T07:17:16;1.75;;;0.55;;
56037;SDS011;41907;47.848;9.000;2023-01-05T07:19:42;0.63;;;0.60;;
56037;SDS011;41907;47.848;9.000;2023-01-05T07:22:08;1.20;;;0.38;;
56037;SDS011;41907;47.848;9.000;2023-01-05T07:24:33;0.57;;;0.50;;
56037;SDS011;41907;47.848;9.000;2023-01-05T07:26:58;0.60;;;0.60;;
56037;SDS011;41907;47.848;9.000;2023-01-05T07:29:24;1.30;;;0.50;;
56037;SDS011;41907;47.848;9.000;2023-01-05T07:31:50;2.65;;;0.60;;
56037;SDS011;41907;47.848;9.000;2023-01-05T07:34:16;2.67;;;0.73;;
56037;SDS011;41907;47.848;9.000;2023-01-05T07:36:42;1.33;;;0.52;;
56037;SDS011;41907;47.848;9.000;2023-01-05T07:39:08;0.68;;;0.55;;
56037;SDS011;41907;47.848;9.000;2023-01-05T07:41:33;6.30;;;2.00;;
56037;SDS011;41907;47.848;9.000;2023-01-05T07:43:59;5.63;;;0.60;;
56037;SDS011;41907;47.848;9.000;2023-01-05T07:46:24;4.95;;;0.60;;
56037;SDS011;41907;47.848;9.000;2023-01-05T07:48:49;5.97;;;1.17;;
56037;SDS011;41907;47.848;9.000;2023-01-05T07:51:15;3.00;;;0.80;;
56037;SDS011;41907;47.848;9.000;2023-01-05T07:53:40;6.13;;;1.00;;
56037;SDS011;41907;47.848;9.000;2023-01-05T07:56:05;8.13;;;1.58;;
56037;SDS011;41907;47.848;9.000;2023-01-05T07:58:31;7.78;;;1.50;;
56037;SDS011;41907;47.848;9.000;2023-01-05T08:01:01;4.13;;;2.50;;
56037;SDS011;41907;47.848;9.000;2023-01-05T08:03:28;39.83;;;25.60;;
56037;SDS011;41907;47.848;9.000;2023-01-05T08:05:53;32.75;;;15.05;;
56037;SDS011;41907;47.848;9.000;2023-01-05T08:08:19;17.95;;;8.52;;
56037;SDS011;41907;47.848;9.000;2023-01-05T08:10:44;9.63;;;5.47;;
56037;SDS011;41907;47.848;9.000;2023-01-05T08:13:09;8.00;;;4.15;;
56037;SDS011;41907;47.848;9.000;2023-01-05T08:15:56;6.25;;;2.78;;
56037;SDS011;41907;47.848;9.000;2023-01-05T08:18:24;5.78;;;2.67;;
56037;SDS011;41907;47.848;9.000;2023-01-05T08:20:53;13.95;;;9.45;;
56037;SDS011;41907;47.848;9.000;2023-01-05T08:23:23;14.55;;;12.52;;
56037;SDS011;41907;47.848;9.000;2023-01-05T08:25:49;17.48;;;12.95;;
56037;SDS011;41907;47.848;9.000;2023-01-05T08:28:15;7.28;;;6.40;;
56037;SDS011;41907;47.848;9.000;2023-01-05T08:30:40;11.23;;;7.50;;
56037;SDS011;41907;47.848;9.000;2023-01-05T08:33:06;8.30;;;6.07;;
56037;SDS011;41907;47.848;9.000;2023-01-05T08:35:31;13.40;;;12.20;;
56037;SDS011;41907;47.848;9.000;2023-01-05T08:37:56;4.78;;;4.25;;
56037;SDS011;41907;47.848;9.000;2023-01-05T08:40:22;1.98;;;1.77;;
56037;SDS011;41907;47.848;9.000;2023-01-05T08:42:49;4.20;;;3.75;;
56037;SDS011;41907;47.848;9.000;2023-01-05T08:45:15;4.07;;;2.58;;
56037;SDS011;41907;47.848;9.000;2023-01-05T08:47:41;3.72;;;2.00;;
56037;SDS011;41907;47.848;9.000;2023-01-05T08:50:07;3.33;;;2.40;;
56037;SDS011;41907;47.848;9.000;2023-01-05T08:52:33;3.13;;;2.55;;
56037;SDS011;41907;47.848;9.000;2023-01-05T08:55:00;5.10;;;2.20;;
56037;SDS011;41907;47.848;9.000;2023-01-05T08:57:25;9.95;;;3.75;;
56037;SDS011;41907;47.848;9.000;2023-01-05T08:59:50;10.95;;;3.65;;
56037;SDS011;41907;47.848;9.000;2023-01-05T09:02:16;10.63;;;4.40;;
56037;SDS011;41907;47.848;9.000;2023-01-05T09:04:41;4.13;;;2.65;;
56037;SDS011;41907;47.848;9.000;2023-01-05T09:07:06;5.82;;;2.42;;
56037;SDS011;41907;47.848;9.000;2023-01-05T09:09:32;3.33;;;2.10;;
56037;SDS011;41907;47.848;9.000;2023-01-05T09:11:57;6.35;;;2.40;;
56037;SDS011;41907;47.848;9.000;2023-01-05T09:14:22;4.93;;;2.65;;
56037;SDS011;41907;47.848;9.000;2023-01-05T09:16:48;9.13;;;3.72;;
56037;SDS011;41907;47.848;9.000;2023-01-05T09:19:13;6.30;;;4.13;;
56037;SDS011;41907;47.848;9.000;2023-01-05T09:21:39;3.53;;;2.58;;
56037;SDS011;41907;47.848;9.000;2023-01-05T09:24:05;4.15;;;2.22;;
56037;SDS011;41907;47.848;9.000;2023-01-05T09:26:31;4.25;;;1.40;;
56037;SDS011;41907;47.848;9.000;2023-01-05T09:28:57;4.70;;;2.25;;
56037;SDS011;41907;47.848;9.000;2023-01-05T09:31:23;4.75;;;2.03;;
56037;SDS011;41907;47.848;9.000;2023-01-05T09:33:48;4.95;;;2.45;;
56037;SDS011;41907;47.848;9.000;2023-01-05T09:36:14;3.53;;;1.95;;
56037;SDS011;41907;47.848;9.000;2023-01-05T09:38:41;1.90;;;1.30;;
56037;SDS011;41907;47.848;9.000;2023-01-05T09:41:10;2.95;;;1.75;;
56037;SDS011;41907;47.848;9.000;2023-01-05T09:43:40;4.22;;;2.58;;
56037;SDS011;41907;47.848;9.000;2023-01-05T09:46:09;2.53;;;2.33;;
56037;SDS011;41907;47.848;9.000;2023-01-05T09:48:39;4.43;;;2.70;;
56037;SDS011;41907;47.848;9.000;2023-01-05T09:51:07;2.75;;;2.47;;
56037;SDS011;41907;47.848;9.000;2023-01-05T09:53:33;4.68;;;3.00;;
56037;SDS011;41907;47.848;9.000;2023-01-05T09:55:59;4.30;;;3.08;;
56037;SDS011;41907;47.848;9.000;2023-01-05T09:58:26;5.68;;;4.43;;
56037;SDS011;41907;47.848;9.000;2023-01-05T10:03:28;11.20;;;5.70;;
56037;SDS011;41907;47.848;9.000;2023-01-05T10:05:55;9.07;;;6.22;;
56037;SDS011;41907;47.848;9.000;2023-01-05T10:08:30;7.22;;;4.88;;
56037;SDS011;41907;47.848;9.000;2023-01-05T10:11:07;6.05;;;3.40;;
56037;SDS011;41907;47.848;9.000;2023-01-05T10:16:44;3.00;;;2.40;;
56037;SDS011;41907;47.848;9.000;2023-01-05T10:19:14;3.40;;;2.33;;
56037;SDS011;41907;47.848;9.000;2023-01-05T10:24:50;3.17;;;2.63;;
56037;SDS011;41907;47.848;9.000;2023-01-05T10:27:26;2.22;;;1.60;;
56037;SDS011;41907;47.848;9.000;2023-01-05T10:32:50;4.20;;;1.65;;
56037;SDS011;41907;47.848;9.000;2023-01-05T10:35:31;4.75;;;1.50;;
56037;SDS011;41907;47.848;9.000;2023-01-05T10:38:22;2.58;;;1.80;;
56037;SDS011;41907;47.848;9.000;2023-01-05T10:46:40;6.25;;;3.22;;
56037;SDS011;41907;47.848;9.000;2023-01-05T10:49:11;9.18;;;4.15;;
56037;SDS011;41907;47.848;9.000;2023-01-05T10:54:11;3.22;;;2.03;;
56037;SDS011;41907;47.848;9.000;2023-01-05T10:57:29;4.30;;;2.78;;
56037;SDS011;41907;47.848;9.000;2023-01-05T10:59:54;1.58;;;0.88;;
56037;SDS011;41907;47.848;9.000;2023-01-05T11:02:30;2.00;;;1.55;;
56037;SDS011;41907;47.848;9.000;2023-01-05T11:05:06;1.63;;;1.10;;
56037;SDS011;41907;47.848;9.000;2023-01-05T11:07:50;1.10;;;1.00;;
56037;SDS011;41907;47.848;9.000;2023-01-05T11:10:20;2.25;;;1.95;;
56037;SDS011;41907;47.848;9.000;2023-01-05T11:15:41;3.15;;;1.40;;
56037;SDS011;41907;47.848;9.000;2023-01-05T11:21:16;2.28;;;1.00;;
56037;SDS011;41907;47.848;9.000;2023-01-05T11:31:33;23.63;;;7.60;;
56037;SDS011;41907;47.848;9.000;2023-01-05T11:36:54;3.90;;;2.13;;
56037;SDS011;41907;47.848;9.000;2023-01-05T11:39:25;23.42;;;10.80;;
56037;SDS011;41907;47.848;9.000;2023-01-05T11:42:06;2.75;;;2.30;;
56037;SDS011;41907;47.848;9.000;2023-01-05T11:44:35;5.47;;;4.55;;
56037;SDS011;41907;47.848;9.000;2023-01-05T11:47:01;8.00;;;7.38;;
56037;SDS011;41907;47.848;9.000;2023-01-05T11:49:30;10.32;;;9.52;;
56037;SDS011;41907;47.848;9.000;2023-01-05T11:51:56;12.82;;;7.85;;
56037;SDS011;41907;47.848;9.000;2023-01-05T11:57:16;3.70;;;1.70;;
56037;SDS011;41907;47.848;9.000;2023-01-05T11:59:47;14.88;;;13.35;;
56037;SDS011;41907;47.848;9.000;2023-01-05T12:08:05;6.47;;;5.97;;
56037;SDS011;41907;47.848;9.000;2023-01-05T12:11:21;5.07;;;4.57;;
56037;SDS011;41907;47.848;9.000;2023-01-05T12:21:25;3.03;;;2.40;;
56037;SDS011;41907;47.848;9.000;2023-01-05T12:38:00;3.00;;;1.63;;
56037;SDS011;41907;47.848;9.000;2023-01-05T12:46:24;4.97;;;1.33;;
56037;SDS011;41907;47.848;9.000;2023-01-05T12:49:00;3.95;;;1.50;;
56037;SDS011;41907;47.848;9.000;2023-01-05T12:51:32;1.38;;;1.13;;
56037;SDS011;41907;47.848;9.000;2023-01-05T12:59:31;1.15;;;0.60;;
56037;SDS011;41907;47.848;9.000;2023-01-05T13:07:12;0.50;;;0.50;;
56037;SDS011;41907;47.848;9.000;2023-01-05T13:09:44;4.60;;;2.40;;
56037;SDS011;41907;47.848;9.000;2023-01-05T13:12:16;3.75;;;2.42;;
56037;SDS011;41907;47.848;9.000;2023-01-05T13:14:43;0.35;;;0.30;;
56037;SDS011;41907;47.848;9.000;2023-01-05T13:17:23;0.95;;;0.95;;
56037;SDS011;41907;47.848;9.000;2023-01-05T13:19:58;2.53;;;1.40;;
56037;SDS011;41907;47.848;9.000;2023-01-05T13:22:30;3.15;;;1.50;;
56037;SDS011;41907;47.848;9.000;2023-01-05T13:25:00;1.80;;;0.80;;
56037;SDS011;41907;47.848;9.000;2023-01-05T13:27:33;0.75;;;0.75;;
56037;SDS011;41907;47.848;9.000;2023-01-05T13:29:58;1.00;;;0.75;;
56037;SDS011;41907;47.848;9.000;2023-01-05T13:51:59;5.00;;;3.35;;
56037;SDS011;41907;47.848;9.000;2023-01-05T13:57:29;2.60;;;2.10;;
56037;SDS011;41907;47.848;9.000;2023-01-05T14:00:05;33.63;;;30.05;;
56037;SDS011;41907;47.848;9.000;2023-01-05T14:02:45;19.95;;;18.00;;
56037;SDS011;41907;47.848;9.000;2023-01-05T14:05:31;8.48;;;7.18;;
56037;SDS011;41907;47.848;9.000;2023-01-05T14:08:02;6.45;;;5.88;;
56037;SDS011;41907;47.848;9.000;2023-01-05T14:10:31;24.40;;;22.20;;
56037;SDS011;41907;47.848;9.000;2023-01-05T14:12:58;20.13;;;18.33;;
56037;SDS011;41907;47.848;9.000;2023-01-05T14:17:55;22.27;;;20.30;;
56037;SDS011;41907;47.848;9.000;2023-01-05T14:28:17;1.80;;;1.48;;
56037;SDS011;41907;47.848;9.000;2023-01-05T14:30:51;5.20;;;2.67;;
56037;SDS011;41907;47.848;9.000;2023-01-05T14:36:30;9.65;;;5.22;;
56037;SDS011;41907;47.848;9.000;2023-01-05T14:39:00;3.67;;;2.63;;
56037;SDS011;41907;47.848;9.000;2023-01-05T14:41:28;8.27;;;5.38;;
56037;SDS011;41907;47.848;9.000;2023-01-05T14:44:04;6.10;;;3.95;;
56037;SDS011;41907;47.848;9.000;2023-01-05T14:49:08;20.48;;;12.77;;
56037;SDS011;41907;47.848;9.000;2023-01-05T14:51:54;10.00;;;5.70;;
56037;SDS011;41907;47.848;9.000;2023-01-05T14:59:49;6.90;;;3.83;;
56037;SDS011;41907;47.848;9.000;2023-01-05T15:02:23;10.57;;;7.72;;
56037;SDS011;41907;47.848;9.000;2023-01-05T15:04:53;7.28;;;4.70;;
56037;SDS011;41907;47.848;9.000;2023-01-05T15:07:29;3.08;;;1.40;;
56037;SDS011;41907;47.848;9.000;2023-01-05T15:24:18;6.32;;;3.08;;
56037;SDS011;41907;47.848;9.000;2023-01-05T15:27:11;15.25;;;7.90;;
56037;SDS011;41907;47.848;9.000;2023-01-05T15:32:14;5.00;;;2.35;;
56037;SDS011;41907;47.848;9.000;2023-01-05T15:37:37;2.15;;;1.48;;
56037;SDS011;41907;47.848;9.000;2023-01-05T15:40:05;1.48;;;1.13;;
56037;SDS011;41907;47.848;9.000;2023-01-05T15:42:50;1.00;;;0.90;;
56037;SDS011;41907;47.848;9.000;2023-01-05T15:45:22;1.35;;;1.13;;
56037;SDS011;41907;47.848;9.000;2023-01-05T15:47:52;1.15;;;0.85;;
56037;SDS011;41907;47.848;9.000;2023-01-05T15:50:22;1.20;;;1.10;;
56037;SDS011;41907;47.848;9.000;2023-01-05T15:52:53;0.45;;;0.45;;
56037;SDS011;41907;47.848;9.000;2023-01-05T15:55:24;0.47;;;0.47;;
56037;SDS011;41907;47.848;9.000;2023-01-05T15:57:54;0.57;;;0.40;;
56037;SDS011;41907;47.848;9.000;2023-01-05T16:02:49;1.63;;;1.15;;
56037;SDS011;41907;47.848;9.000;2023-01-05T16:05:19;2.00;;;0.90;;
56037;SDS011;41907;47.848;9.000;2023-01-05T16:07:56;0.60;;;0.60;;
56037;SDS011;41907;47.848;9.000;2023-01-05T16:10:34;0.68;;;0.55;;
56037;SDS011;41907;47.848;9.000;2023-01-05T16:13:04;5.95;;;5.35;;
56037;SDS011;41907;47.848;9.000;2023-01-05T16:15:48;8.48;;;6.95;;
56037;SDS011;41907;47.848;9.000;2023-01-05T16:18:22;18.88;;;12.27;;
56037;SDS011;41907;47.848;9.000;2023-01-05T16:20:51;19.20;;;10.35;;
56037;SDS011;41907;47.848;9.000;2023-01-05T16:25:55;9.32;;;6.85;;
56037;SDS011;41907;47.848;9.000;2023-01-05T16:28:22;4.43;;;2.67;;
56037;SDS011;41907;47.848;9.000;2023-01-05T16:30:49;1.75;;;1.38;;
56037;SDS011;41907;47.848;9.000;2023-01-05T16:38:30;3.25;;;1.95;;
56037;SDS011;41907;47.848;9.000;2023-01-05T16:43:35;5.97;;;2.63;;
56037;SDS011;41907;47.848;9.000;2023-01-05T16:51:20;13.35;;;8.75;;
56037;SDS011;41907;47.848;9.000;2023-01-05T16:53:49;6.70;;;4.38;;
56037;SDS011;41907;47.848;9.000;2023-01-05T16:56:20;13.75;;;6.82;;
56037;SDS011;41907;47.848;9.000;2023-01-05T16:58:46;4.93;;;3.22;;
56037;SDS011;41907;47.848;9.000;2023-01-05T17:03:38;2.80;;;1.73;;
56037;SDS011;41907;47.848;9.000;2023-01-05T17:06:04;4.93;;;3.28;;
56037;SDS011;41907;47.848;9.000;2023-01-05T17:08:31;3.83;;;1.52;;
56037;SDS011;41907;47.848;9.000;2023-01-05T17:11:03;3.55;;;2.67;;
56037;SDS011;41907;47.848;9.000;2023-01-05T17:13:40;3.33;;;2.47;;
56037;SDS011;41907;47.848;9.000;2023-01-05T17:18:34;6.35;;;3.35;;
56037;SDS011;41907;47.848;9.000;2023-01-05T17:21:00;2.63;;;1.50;;
56037;SDS011;41907;47.848;9.000;2023-01-05T17:26:03;5.68;;;4.53;;
56037;SDS011;41907;47.848;9.000;2023-01-05T17:28:31;8.00;;;5.43;;
56037;SDS011;41907;47.848;9.000;2023-01-05T17:30:56;9.40;;;6.30;;
56037;SDS011;41907;47.848;9.000;2023-01-05T17:33:22;9.07;;;4.55;;
56037;SDS011;41907;47.848;9.000;2023-01-05T17:35:47;5.15;;;3.65;;
56037;SDS011;41907;47.848;9.000;2023-01-05T17:38:13;10.20;;;5.13;;
56037;SDS011;41907;47.848;9.000;2023-01-05T17:40:39;7.15;;;3.75;;
56037;SDS011;41907;47.848;9.000;2023-01-05T17:43:05;5.10;;;3.10;;
56037;SDS011;41907;47.848;9.000;2023-01-05T17:45:30;5.38;;;2.45;;
56037;SDS011;41907;47.848;9.000;2023-01-05T17:47:56;3.28;;;2.47;;
56037;SDS011;41907;47.848;9.000;2023-01-05T17:50:23;3.58;;;2.60;;
56037;SDS011;41907;47.848;9.000;2023-01-05T17:52:52;2.90;;;1.83;;
56037;SDS011;41907;47.848;9.000;2023-01-05T17:55:18;9.50;;;5.20;;
56037;SDS011;41907;47.848;9.000;2023-01-05T17:57:44;5.32;;;2.90;;
56037;SDS011;41907;47.848;9.000;2023-01-05T18:00:11;3.70;;;1.95;;
56037;SDS011;41907;47.848;9.000;2023-01-05T18:02:38;2.75;;;1.58;;
56037;SDS011;41907;47.848;9.000;2023-01-05T18:05:05;2.17;;;1.65;;